sensor_id;sensor_type;location;lat;lon;timestamp;P1;durP1;ratioP1;P2;durP2;ratioP2
60078;SDS011;45951;45.824;8.824;2023-02-28T00:04:53;7.37;;;4.57;;
60078;SDS011;45951;45.824;8.824;2023-02-28T00:11:04;8.70;;;4.45;;
60078;SDS011;45951;45.824;8.824;2023-02-28T00:17:06;8.20;;;4.53;;
60078;SDS011;45951;45.824;8.824;2023-02-28T00:23:07;7.93;;;4.82;;
60078;SDS011;45951;45.824;8.824;2023-02-28T00:29:08;7.95;;;4.88;;
60078;SDS011;45951;45.824;8.824;2023-02-28T00:35:08;8.18;;;5.13;;
60078;SDS011;45951;45.824;8.824;2023-02-28T00:41:09;9.13;;;5.50;;
60078;SDS011;45951;45.824;8.824;2023-02-28T00:47:09;9.00;;;6.25;;
60078;SDS011;45951;45.824;8.824;2023-02-28T00:53:10;10.00;;;5.90;;
60078;SDS011;45951;45.824;8.824;2023-02-28T00:59:10;7.57;;;5.47;;
60078;SDS011;45951;45.824;8.824;2023-02-28T01:05:11;9.30;;;5.53;;
60078;SDS011;45951;45.824;8.824;2023-02-28T01:11:11;9.45;;;5.32;;
60078;SDS011;45951;45.824;8.824;2023-02-28T01:17:13;7.57;;;5.30;;
60078;SDS011;45951;45.824;8.824;2023-02-28T01:23:13;6.32;;;4.25;;
60078;SDS011;45951;45.824;8.824;2023-02-28T01:29:14;8.60;;;5.13;;
60078;SDS011;45951;45.824;8.824;2023-02-28T01:35:15;9.60;;;5.65;;
60078;SDS011;45951;45.824;8.824;2023-02-28T01:41:22;9.35;;;6.40;;
60078;SDS011;45951;45.824;8.824;2023-02-28T01:47:28;11.10;;;7.25;;
60078;SDS011;45951;45.824;8.824;2023-02-28T01:53:34;12.13;;;7.65;;
60078;SDS011;45951;45.824;8.824;2023-02-28T01:59:42;11.07;;;7.45;;
60078;SDS011;45951;45.824;8.824;2023-02-28T02:05:46;12.00;;;7.50;;
60078;SDS011;45951;45.824;8.824;2023-02-28T02:11:47;11.77;;;7.32;;
60078;SDS011;45951;45.824;8.824;2023-02-28T02:17:51;11.57;;;7.72;;
60078;SDS011;45951;45.824;8.824;2023-02-28T02:37:15;11.43;;;8.00;;
60078;SDS011;45951;45.824;8.824;2023-02-28T02:43:19;11.77;;;7.80;;
60078;SDS011;45951;45.824;8.824;2023-02-28T02:49:26;11.85;;;7.13;;
60078;SDS011;45951;45.824;8.824;2023-02-28T02:55:31;13.77;;;8.27;;
60078;SDS011;45951;45.824;8.824;2023-02-28T03:01:33;11.70;;;7.53;;
60078;SDS011;45951;45.824;8.824;2023-02-28T03:07:34;12.15;;;7.88;;
60078;SDS011;45951;45.824;8.824;2023-02-28T03:20:21;10.38;;;7.13;;
60078;SDS011;45951;45.824;8.824;2023-02-28T03:26:31;12.20;;;7.88;;
60078;SDS011;45951;45.824;8.824;2023-02-28T03:39:08;11.00;;;7.93;;
60078;SDS011;45951;45.824;8.824;2023-02-28T03:45:24;11.63;;;7.88;;
60078;SDS011;45951;45.824;8.824;2023-02-28T03:51:26;11.52;;;8.07;;
60078;SDS011;45951;45.824;8.824;2023-02-28T04:03:54;13.07;;;8.63;;
60078;SDS011;45951;45.824;8.824;2023-02-28T04:09:55;11.10;;;7.53;;
60078;SDS011;45951;45.824;8.824;2023-02-28T04:15:55;12.27;;;7.60;;
60078;SDS011;45951;45.824;8.824;2023-02-28T04:21:55;12.23;;;7.97;;
60078;SDS011;45951;45.824;8.824;2023-02-28T04:27:56;16.42;;;11.32;;
60078;SDS011;45951;45.824;8.824;2023-02-28T04:33:56;11.85;;;7.47;;
60078;SDS011;45951;45.824;8.824;2023-02-28T04:39:56;13.27;;;8.73;;
60078;SDS011;45951;45.824;8.824;2023-02-28T04:45:57;12.95;;;8.23;;
60078;SDS011;45951;45.824;8.824;2023-02-28T04:52:00;12.48;;;7.90;;
60078;SDS011;45951;45.824;8.824;2023-02-28T04:58:00;13.67;;;9.50;;
60078;SDS011;45951;45.824;8.824;2023-02-28T05:04:01;12.83;;;9.10;;
60078;SDS011;45951;45.824;8.824;2023-02-28T05:10:03;16.40;;;9.75;;
60078;SDS011;45951;45.824;8.824;2023-02-28T05:16:04;12.90;;;8.60;;
60078;SDS011;45951;45.824;8.824;2023-02-28T05:22:04;16.10;;;9.80;;
60078;SDS011;45951;45.824;8.824;2023-02-28T05:28:16;13.60;;;9.15;;
60078;SDS011;45951;45.824;8.824;2023-02-28T05:34:16;14.20;;;9.82;;
60078;SDS011;45951;45.824;8.824;2023-02-28T05:40:16;13.95;;;9.82;;
60078;SDS011;45951;45.824;8.824;2023-02-28T05:46:17;16.33;;;10.17;;
60078;SDS011;45951;45.824;8.824;2023-02-28T05:52:17;15.35;;;10.07;;
60078;SDS011;45951;45.824;8.824;2023-02-28T05:58:17;17.00;;;11.52;;
60078;SDS011;45951;45.824;8.824;2023-02-28T06:04:19;19.00;;;11.75;;
60078;SDS011;45951;45.824;8.824;2023-02-28T06:10:20;17.25;;;11.73;;
60078;SDS011;45951;45.824;8.824;2023-02-28T06:16:20;16.15;;;10.55;;
60078;SDS011;45951;45.824;8.824;2023-02-28T06:22:21;16.80;;;11.38;;
60078;SDS011;45951;45.824;8.824;2023-02-28T06:28:22;16.77;;;11.32;;
60078;SDS011;45951;45.824;8.824;2023-02-28T06:34:22;17.25;;;11.45;;
60078;SDS011;45951;45.824;8.824;2023-02-28T06:40:23;17.77;;;12.05;;
60078;SDS011;45951;45.824;8.824;2023-02-28T06:46:23;17.98;;;11.50;;
60078;SDS011;45951;45.824;8.824;2023-02-28T06:52:23;17.65;;;11.32;;
60078;SDS011;45951;45.824;8.824;2023-02-28T06:58:24;18.20;;;11.23;;
60078;SDS011;45951;45.824;8.824;2023-02-28T07:04:24;20.03;;;11.67;;
60078;SDS011;45951;45.824;8.824;2023-02-28T07:10:24;19.35;;;11.80;;
60078;SDS011;45951;45.824;8.824;2023-02-28T07:16:25;18.45;;;12.48;;
60078;SDS011;45951;45.824;8.824;2023-02-28T07:22:25;19.27;;;12.47;;
60078;SDS011;45951;45.824;8.824;2023-02-28T07:28:26;18.85;;;13.00;;
60078;SDS011;45951;45.824;8.824;2023-02-28T07:34:26;19.42;;;13.38;;
60078;SDS011;45951;45.824;8.824;2023-02-28T07:40:26;17.33;;;10.95;;
60078;SDS011;45951;45.824;8.824;2023-02-28T07:46:27;17.85;;;12.13;;
60078;SDS011;45951;45.824;8.824;2023-02-28T07:52:29;17.52;;;11.85;;
60078;SDS011;45951;45.824;8.824;2023-02-28T07:58:29;17.10;;;11.60;;
60078;SDS011;45951;45.824;8.824;2023-02-28T08:04:33;17.10;;;12.32;;
60078;SDS011;45951;45.824;8.824;2023-02-28T08:10:33;19.35;;;12.02;;
60078;SDS011;45951;45.824;8.824;2023-02-28T08:16:34;18.80;;;11.37;;
60078;SDS011;45951;45.824;8.824;2023-02-28T08:22:34;16.83;;;11.57;;
60078;SDS011;45951;45.824;8.824;2023-02-28T08:28:34;18.38;;;11.95;;
60078;SDS011;45951;45.824;8.824;2023-02-28T08:34:35;17.88;;;11.85;;
60078;SDS011;45951;45.824;8.824;2023-02-28T08:40:35;18.52;;;12.02;;
60078;SDS011;45951;45.824;8.824;2023-02-28T08:46:35;16.38;;;11.25;;
60078;SDS011;45951;45.824;8.824;2023-02-28T08:52:36;15.50;;;10.27;;
60078;SDS011;45951;45.824;8.824;2023-02-28T08:58:36;18.60;;;11.33;;
60078;SDS011;45951;45.824;8.824;2023-02-28T09:04:36;16.87;;;11.17;;
60078;SDS011;45951;45.824;8.824;2023-02-28T09:10:37;18.45;;;11.10;;
60078;SDS011;45951;45.824;8.824;2023-02-28T09:16:37;16.50;;;11.30;;
60078;SDS011;45951;45.824;8.824;2023-02-28T09:22:37;16.65;;;11.38;;
60078;SDS011;45951;45.824;8.824;2023-02-28T09:28:38;18.77;;;12.35;;
60078;SDS011;45951;45.824;8.824;2023-02-28T09:34:38;18.10;;;11.68;;
60078;SDS011;45951;45.824;8.824;2023-02-28T09:40:53;15.95;;;11.30;;
60078;SDS011;45951;45.824;8.824;2023-02-28T09:47:00;16.92;;;10.98;;
60078;SDS011;45951;45.824;8.824;2023-02-28T09:53:14;15.90;;;11.60;;
60078;SDS011;45951;45.824;8.824;2023-02-28T10:05:50;16.08;;;10.02;;
60078;SDS011;45951;45.824;8.824;2023-02-28T10:11:54;17.77;;;11.35;;
60078;SDS011;45951;45.824;8.824;2023-02-28T10:18:03;16.52;;;10.68;;
60078;SDS011;45951;45.824;8.824;2023-02-28T10:24:25;15.60;;;10.30;;
60078;SDS011;45951;45.824;8.824;2023-02-28T10:30:38;16.80;;;11.30;;
60078;SDS011;45951;45.824;8.824;2023-02-28T10:36:41;16.60;;;10.75;;
60078;SDS011;45951;45.824;8.824;2023-02-28T10:42:54;17.63;;;10.65;;
60078;SDS011;45951;45.824;8.824;2023-02-28T10:49:05;15.68;;;10.60;;
60078;SDS011;45951;45.824;8.824;2023-02-28T10:55:16;17.40;;;11.07;;
60078;SDS011;45951;45.824;8.824;2023-02-28T11:01:38;21.90;;;11.63;;
60078;SDS011;45951;45.824;8.824;2023-02-28T11:07:50;16.10;;;10.88;;
60078;SDS011;45951;45.824;8.824;2023-02-28T11:13:53;17.80;;;11.60;;
60078;SDS011;45951;45.824;8.824;2023-02-28T11:19:56;16.13;;;10.63;;
60078;SDS011;45951;45.824;8.824;2023-02-28T11:25:59;15.80;;;10.70;;
60078;SDS011;45951;45.824;8.824;2023-02-28T11:32:16;16.85;;;10.95;;
60078;SDS011;45951;45.824;8.824;2023-02-28T11:38:20;16.38;;;11.65;;
60078;SDS011;45951;45.824;8.824;2023-02-28T11:44:23;16.55;;;11.45;;
60078;SDS011;45951;45.824;8.824;2023-02-28T11:50:57;17.38;;;10.77;;
60078;SDS011;45951;45.824;8.824;2023-02-28T11:57:08;16.10;;;10.88;;
60078;SDS011;45951;45.824;8.824;2023-02-28T12:10:01;16.02;;;10.65;;
60078;SDS011;45951;45.824;8.824;2023-02-28T12:22:42;16.77;;;11.07;;
60078;SDS011;45951;45.824;8.824;2023-02-28T12:34:52;16.17;;;10.77;;
60078;SDS011;45951;45.824;8.824;2023-02-28T12:41:05;16.73;;;11.10;;
60078;SDS011;45951;45.824;8.824;2023-02-28T12:47:14;17.10;;;11.52;;
60078;SDS011;45951;45.824;8.824;2023-02-28T12:53:24;17.43;;;12.00;;
60078;SDS011;45951;45.824;8.824;2023-02-28T12:59:41;14.40;;;10.07;;
60078;SDS011;45951;45.824;8.824;2023-02-28T13:12:12;16.65;;;9.70;;
60078;SDS011;45951;45.824;8.824;2023-02-28T13:18:27;13.40;;;9.02;;
60078;SDS011;45951;45.824;8.824;2023-02-28T13:24:49;16.75;;;11.35;;
60078;SDS011;45951;45.824;8.824;2023-02-28T13:43:17;14.95;;;11.35;;
60078;SDS011;45951;45.824;8.824;2023-02-28T13:55:32;17.25;;;11.85;;
60078;SDS011;45951;45.824;8.824;2023-02-28T14:07:56;15.38;;;10.82;;
60078;SDS011;45951;45.824;8.824;2023-02-28T14:13:57;17.70;;;10.47;;
60078;SDS011;45951;45.824;8.824;2023-02-28T14:19:57;14.70;;;10.27;;
60078;SDS011;45951;45.824;8.824;2023-02-28T14:26:03;16.40;;;10.95;;
60078;SDS011;45951;45.824;8.824;2023-02-28T14:44:42;15.48;;;11.25;;
60078;SDS011;45951;45.824;8.824;2023-02-28T14:50:56;16.27;;;11.25;;
60078;SDS011;45951;45.824;8.824;2023-02-28T14:56:58;15.77;;;10.82;;
60078;SDS011;45951;45.824;8.824;2023-02-28T15:02:58;16.75;;;11.80;;
60078;SDS011;45951;45.824;8.824;2023-02-28T15:09:07;15.88;;;11.23;;
60078;SDS011;45951;45.824;8.824;2023-02-28T15:15:15;15.18;;;10.80;;
60078;SDS011;45951;45.824;8.824;2023-02-28T15:21:18;16.05;;;11.50;;
60078;SDS011;45951;45.824;8.824;2023-02-28T15:27:28;15.75;;;11.68;;
60078;SDS011;45951;45.824;8.824;2023-02-28T15:33:32;16.50;;;11.43;;
60078;SDS011;45951;45.824;8.824;2023-02-28T15:39:33;17.83;;;11.50;;
60078;SDS011;45951;45.824;8.824;2023-02-28T15:45:51;15.52;;;11.52;;
60078;SDS011;45951;45.824;8.824;2023-02-28T15:51:56;16.58;;;11.77;;
60078;SDS011;45951;45.824;8.824;2023-02-28T15:58:00;17.88;;;11.70;;
60078;SDS011;45951;45.824;8.824;2023-02-28T16:04:17;15.48;;;11.35;;
60078;SDS011;45951;45.824;8.824;2023-02-28T16:10:23;17.38;;;11.63;;
60078;SDS011;45951;45.824;8.824;2023-02-28T16:16:26;15.60;;;10.82;;
60078;SDS011;45951;45.824;8.824;2023-02-28T16:22:26;15.98;;;11.95;;
60078;SDS011;45951;45.824;8.824;2023-02-28T16:28:29;17.65;;;11.70;;
60078;SDS011;45951;45.824;8.824;2023-02-28T16:34:32;15.97;;;12.23;;
60078;SDS011;45951;45.824;8.824;2023-02-28T16:40:33;17.57;;;11.73;;
60078;SDS011;45951;45.824;8.824;2023-02-28T16:46:35;16.23;;;11.32;;
60078;SDS011;45951;45.824;8.824;2023-02-28T16:52:36;18.25;;;11.75;;
60078;SDS011;45951;45.824;8.824;2023-02-28T16:58:36;15.73;;;11.13;;
60078;SDS011;45951;45.824;8.824;2023-02-28T17:04:38;17.00;;;11.65;;
60078;SDS011;45951;45.824;8.824;2023-02-28T17:10:38;17.00;;;11.13;;
60078;SDS011;45951;45.824;8.824;2023-02-28T17:16:38;17.77;;;10.95;;
60078;SDS011;45951;45.824;8.824;2023-02-28T17:22:42;18.55;;;12.02;;
60078;SDS011;45951;45.824;8.824;2023-02-28T17:28:42;17.08;;;11.38;;
60078;SDS011;45951;45.824;8.824;2023-02-28T17:34:43;16.00;;;11.73;;
60078;SDS011;45951;45.824;8.824;2023-02-28T17:40:44;17.48;;;12.13;;
60078;SDS011;45951;45.824;8.824;2023-02-28T17:46:44;20.10;;;12.10;;
60078;SDS011;45951;45.824;8.824;2023-02-28T17:52:45;20.83;;;12.10;;
60078;SDS011;45951;45.824;8.824;2023-02-28T17:58:46;15.67;;;10.87;;
60078;SDS011;45951;45.824;8.824;2023-02-28T18:04:46;23.83;;;14.77;;
60078;SDS011;45951;45.824;8.824;2023-02-28T18:10:47;23.15;;;16.05;;
60078;SDS011;45951;45.824;8.824;2023-02-28T18:16:47;25.77;;;15.32;;
60078;SDS011;45951;45.824;8.824;2023-02-28T18:22:47;22.50;;;15.18;;
60078;SDS011;45951;45.824;8.824;2023-02-28T18:28:48;21.83;;;14.38;;
60078;SDS011;45951;45.824;8.824;2023-02-28T18:34:48;23.63;;;13.45;;
60078;SDS011;45951;45.824;8.824;2023-02-28T18:40:55;21.10;;;13.80;;
60078;SDS011;45951;45.824;8.824;2023-02-28T18:46:58;20.17;;;13.35;;
60078;SDS011;45951;45.824;8.824;2023-02-28T18:52:58;20.63;;;13.63;;
60078;SDS011;45951;45.824;8.824;2023-02-28T18:58:58;20.83;;;12.98;;
60078;SDS011;45951;45.824;8.824;2023-02-28T19:04:59;20.48;;;13.50;;
60078;SDS011;45951;45.824;8.824;2023-02-28T19:11:04;23.10;;;13.63;;
60078;SDS011;45951;45.824;8.824;2023-02-28T19:17:06;23.77;;;14.43;;
60078;SDS011;45951;45.824;8.824;2023-02-28T19:23:06;22.92;;;14.95;;
60078;SDS011;45951;45.824;8.824;2023-02-28T19:29:09;22.80;;;14.55;;
60078;SDS011;45951;45.824;8.824;2023-02-28T19:35:09;23.13;;;14.88;;
60078;SDS011;45951;45.824;8.824;2023-02-28T19:41:10;24.42;;;14.38;;
60078;SDS011;45951;45.824;8.824;2023-02-28T19:47:12;25.67;;;16.27;;
60078;SDS011;45951;45.824;8.824;2023-02-28T19:53:12;27.70;;;16.65;;
60078;SDS011;45951;45.824;8.824;2023-02-28T19:59:13;24.08;;;15.52;;
60078;SDS011;45951;45.824;8.824;2023-02-28T20:05:20;22.20;;;15.43;;
60078;SDS011;45951;45.824;8.824;2023-02-28T20:11:20;24.25;;;15.90;;
60078;SDS011;45951;45.824;8.824;2023-02-28T20:17:21;23.38;;;14.60;;
60078;SDS011;45951;45.824;8.824;2023-02-28T20:23:22;24.20;;;15.65;;
60078;SDS011;45951;45.824;8.824;2023-02-28T20:29:22;25.08;;;16.50;;
60078;SDS011;45951;45.824;8.824;2023-02-28T20:35:22;28.90;;;15.97;;
60078;SDS011;45951;45.824;8.824;2023-02-28T20:41:23;24.83;;;16.70;;
60078;SDS011;45951;45.824;8.824;2023-02-28T20:47:23;25.23;;;16.55;;
60078;SDS011;45951;45.824;8.824;2023-02-28T20:53:24;28.17;;;16.90;;
60078;SDS011;45951;45.824;8.824;2023-02-28T20:59:25;24.23;;;16.40;;
60078;SDS011;45951;45.824;8.824;2023-02-28T21:05:26;21.17;;;14.73;;
60078;SDS011;45951;45.824;8.824;2023-02-28T21:11:27;24.77;;;15.30;;
60078;SDS011;45951;45.824;8.824;2023-02-28T21:17:29;24.80;;;15.80;;
60078;SDS011;45951;45.824;8.824;2023-02-28T21:23:29;25.23;;;16.00;;
60078;SDS011;45951;45.824;8.824;2023-02-28T21:29:30;24.58;;;15.77;;
60078;SDS011;45951;45.824;8.824;2023-02-28T21:35:31;22.50;;;15.57;;
60078;SDS011;45951;45.824;8.824;2023-02-28T21:41:31;23.42;;;15.07;;
60078;SDS011;45951;45.824;8.824;2023-02-28T21:47:31;26.50;;;15.65;;
60078;SDS011;45951;45.824;8.824;2023-02-28T21:53:33;23.77;;;14.97;;
60078;SDS011;45951;45.824;8.824;2023-02-28T21:59:34;24.80;;;15.25;;
60078;SDS011;45951;45.824;8.824;2023-02-28T22:05:35;24.60;;;16.85;;
60078;SDS011;45951;45.824;8.824;2023-02-28T22:11:35;25.33;;;16.45;;
60078;SDS011;45951;45.824;8.824;2023-02-28T22:17:36;25.00;;;16.00;;
60078;SDS011;45951;45.824;8.824;2023-02-28T22:23:37;29.70;;;16.10;;
60078;SDS011;45951;45.824;8.824;2023-02-28T22:29:38;25.02;;;15.52;;
60078;SDS011;45951;45.824;8.824;2023-02-28T22:35:38;24.83;;;15.40;;
60078;SDS011;45951;45.824;8.824;2023-02-28T22:41:39;23.90;;;15.27;;
60078;SDS011;45951;45.824;8.824;2023-02-28T22:47:39;27.70;;;16.73;;
60078;SDS011;45951;45.824;8.824;2023-02-28T22:53:40;26.27;;;15.82;;
60078;SDS011;45951;45.824;8.824;2023-02-28T22:59:41;25.08;;;14.77;;
60078;SDS011;45951;45.824;8.824;2023-02-28T23:05:42;23.83;;;14.73;;
60078;SDS011;45951;45.824;8.824;2023-02-28T23:11:43;23.88;;;15.13;;
60078;SDS011;45951;45.824;8.824;2023-02-28T23:17:45;24.67;;;15.55;;
60078;SDS011;45951;45.824;8.824;2023-02-28T23:23:46;23.85;;;15.20;;
60078;SDS011;45951;45.824;8.824;2023-02-28T23:29:47;22.30;;;14.80;;
60078;SDS011;45951;45.824;8.824;2023-02-28T23:35:47;23.35;;;14.65;;
60078;SDS011;45951;45.824;8.824;2023-02-28T23:41:47;23.23;;;14.10;;
60078;SDS011;45951;45.824;8.824;2023-02-28T23:47:48;28.23;;;16.17;;
60078;SDS011;45951;45.824;8.824;2023-02-28T23:53:49;23.70;;;14.40;;
60078;SDS011;45951;45.824;8.824;2023-02-28T23:59:50;25.45;;;15.75;;
